Terminal Aerodrome Forecast
Issued by NWS

Home | Current Version | Previous Version | Text Only | Print | Product List | Glossary On
Versions: 1 2 3 4 5 6 7 8 9 10 11 12 13 14 15 16 17 18 19 20 21 22 23 24 25 26 27 28
281
FTUS45 KCYS 261129 CCA
TAFLAR
TAF COR
KLAR 261129Z 2612/2712 20005KT P6SM SCT200
     FM261800 05008KT P6SM VCTS SCT070CB BKN200
     FM262100 08010KT P6SM -SHRA OVC090
      TEMPO 2621/2701 6SM -TSRA OVC040CB
     FM270300 02006KT P6SM SCT080
     FM270600 35006KT P6SM BKN070=

USA.gov is the U.S. government's official web portal to all federal, state and local government web resources and services.